Time;durP1;ratioP1;P1;durP2;ratioP2;P2;SDS_P1;SDS_P2;PMS_P1;PMS_P2;Temp;Humidity;BMP_temperature;BMP_pressure;BME280_temperature;BME280_humidity;BME280_pressure;Samples;Min_cycle;Max_cycle;Signal;HPM_P1;HPM_P2
2020/12/06 00:00:48;;;;;;;4.90;2.47;;;19.40;41.50;;;;;;5037494;28;20679;-48
2020/12/06 00:03:13;;;;;;;2.38;2.17;;;19.40;41.40;;;;;;5037597;28;20509;-46
2020/12/06 00:05:39;;;;;;;2.67;2.10;;;19.40;41.50;;;;;;5043125;28;20029;-47
2020/12/06 00:08:06;;;;;;;2.83;2.05;;;19.40;41.50;;;;;;5042198;28;20029;-50
2020/12/06 00:10:31;;;;;;;2.47;2.28;;;19.40;41.50;;;;;;5040082;28;20393;-50
2020/12/06 00:12:57;;;;;;;3.00;2.05;;;19.40;42.00;;;;;;5042676;28;20040;-50
2020/12/06 00:15:22;;;;;;;2.08;1.88;;;19.40;41.70;;;;;;5049504;28;20102;-49
2020/12/06 00:17:48;;;;;;;2.40;2.20;;;19.40;41.80;;;;;;5048272;28;20410;-50
2020/12/06 00:20:13;;;;;;;2.28;1.75;;;19.40;41.70;;;;;;5046622;28;20028;-49
2020/12/06 00:22:39;;;;;;;2.67;1.88;;;19.40;41.60;;;;;;5046795;28;20033;-52
2020/12/06 00:25:05;;;;;;;2.63;2.05;;;19.40;41.60;;;;;;5045077;28;20029;-48
2020/12/06 00:27:35;;;;;;;3.13;2.00;;;19.40;41.60;;;;;;5048910;28;20029;-49
2020/12/06 00:30:04;;;;;;;2.35;1.70;;;19.30;41.50;;;;;;5043964;28;20040;-47
2020/12/06 00:32:29;;;;;;;2.15;1.95;;;19.30;41.60;;;;;;5041826;28;20025;-49
2020/12/06 00:34:55;;;;;;;1.98;1.58;;;19.30;41.50;;;;;;5046391;28;20109;-48
2020/12/06 00:37:20;;;;;;;3.40;2.05;;;19.30;41.60;;;;;;5042766;28;20021;-51
2020/12/06 00:39:46;;;;;;;2.75;2.10;;;19.30;41.50;;;;;;5047047;28;20501;-49
2020/12/06 00:42:11;;;;;;;2.25;1.73;;;19.30;41.60;;;;;;5047618;28;20529;-47
2020/12/06 00:44:37;;;;;;;2.30;2.05;;;19.30;41.50;;;;;;5045514;28;20036;-49
2020/12/06 00:47:03;;;;;;;3.53;1.27;;;19.30;41.30;;;;;;5048480;28;20029;-49
2020/12/06 00:49:28;;;;;;;3.80;1.52;;;19.30;41.40;;;;;;5045574;28;20049;-48
2020/12/06 00:51:55;;;;;;;2.42;1.88;;;19.30;41.50;;;;;;5048446;28;20036;-48
2020/12/06 00:54:21;;;;;;;2.60;1.60;;;19.30;41.50;;;;;;5038205;28;20104;-48
2020/12/06 00:56:46;;;;;;;2.20;1.77;;;19.30;41.50;;;;;;5046564;28;20781;-47
2020/12/06 00:59:12;;;;;;;1.80;1.52;;;19.30;41.50;;;;;;5028581;28;20037;-51
2020/12/06 01:01:40;;;;;;;1.70;1.60;;;19.20;41.40;;;;;;5027937;28;20028;-49
2020/12/06 01:04:07;;;;;;;3.08;2.13;;;19.20;41.40;;;;;;5045439;28;20043;-52
2020/12/06 01:06:33;;;;;;;1.83;1.52;;;19.20;41.40;;;;;;5050854;28;20045;-48
2020/12/06 01:08:58;;;;;;;2.33;1.50;;;19.20;41.50;;;;;;5047558;28;20087;-49
2020/12/06 01:11:24;;;;;;;1.58;1.25;;;19.20;41.40;;;;;;5050779;28;20126;-49
2020/12/06 01:13:49;;;;;;;2.20;1.38;;;19.20;41.40;;;;;;5049781;28;20051;-48
2020/12/06 01:16:15;;;;;;;1.95;1.30;;;19.20;41.40;;;;;;5047889;28;20052;-50
2020/12/06 01:18:41;;;;;;;1.60;1.33;;;19.20;41.40;;;;;;5049744;28;20085;-50
2020/12/06 01:21:09;;;;;;;2.17;1.45;;;19.20;41.40;;;;;;5048968;28;20084;-50
2020/12/06 01:23:35;;;;;;;1.95;1.30;;;19.20;41.50;;;;;;5044647;28;20060;-49
2020/12/06 01:26:01;;;;;;;1.77;1.50;;;19.20;41.50;;;;;;5032956;28;20479;-48
2020/12/06 01:28:26;;;;;;;1.92;1.65;;;19.20;41.40;;;;;;5034375;28;20087;-50
2020/12/06 01:30:52;;;;;;;1.63;1.10;;;19.20;41.40;;;;;;5043130;28;20025;-49
2020/12/06 01:33:17;;;;;;;2.47;1.48;;;19.20;41.40;;;;;;5049497;28;20024;-48
2020/12/06 01:35:43;;;;;;;1.88;1.50;;;19.20;41.40;;;;;;5048475;28;20552;-47
2020/12/06 01:38:08;;;;;;;1.63;1.10;;;19.20;41.40;;;;;;5048953;28;20606;-48
2020/12/06 01:40:39;;;;;;;1.42;1.25;;;19.20;41.50;;;;;;5050718;28;20578;-47
2020/12/06 01:43:05;;;;;;;2.10;1.38;;;19.20;41.40;;;;;;5039552;28;20099;-48
2020/12/06 01:45:30;;;;;;;1.92;1.67;;;19.20;41.30;;;;;;5047429;28;20036;-48
2020/12/06 01:47:56;;;;;;;2.80;1.38;;;19.20;41.20;;;;;;5048729;28;20029;-49
2020/12/06 01:50:21;;;;;;;3.55;1.80;;;19.20;41.20;;;;;;5049144;28;20041;-49
2020/12/06 01:52:47;;;;;;;2.22;1.67;;;19.20;41.40;;;;;;5050097;28;20028;-47
2020/12/06 01:55:13;;;;;;;2.30;1.42;;;19.20;41.30;;;;;;5049741;28;20047;-50
2020/12/06 01:57:39;;;;;;;2.22;1.63;;;19.10;41.30;;;;;;5055615;28;20040;-48
2020/12/06 02:00:09;;;;;;;1.70;1.50;;;19.20;41.40;;;;;;5057984;28;20021;-48
2020/12/06 02:02:35;;;;;;;2.33;1.30;;;19.20;41.40;;;;;;5046598;28;20406;-47
2020/12/06 02:05:03;;;;;;;2.00;1.42;;;19.20;41.40;;;;;;5040871;28;20044;-49
2020/12/06 02:07:31;;;;;;;2.53;1.67;;;19.10;41.20;;;;;;5047035;28;20038;-50
2020/12/06 02:09:57;;;;;;;1.55;1.13;;;19.10;41.30;;;;;;5045564;28;20065;-44
2020/12/06 02:12:23;;;;;;;2.10;1.40;;;19.10;41.30;;;;;;5049248;28;20118;-50
2020/12/06 02:14:48;;;;;;;1.67;1.33;;;19.10;41.30;;;;;;5049531;28;20021;-47
2020/12/06 02:17:14;;;;;;;1.40;1.20;;;19.10;41.40;;;;;;5043022;28;20490;-48
2020/12/06 02:19:39;;;;;;;2.28;1.38;;;19.10;41.40;;;;;;5047080;28;20036;-47
2020/12/06 02:22:05;;;;;;;1.38;1.15;;;19.10;41.30;;;;;;5041299;28;20029;-50
2020/12/06 02:24:30;;;;;;;1.70;1.17;;;19.10;41.30;;;;;;5048714;28;20116;-46
2020/12/06 02:26:56;;;;;;;2.17;1.30;;;19.10;41.30;;;;;;5046036;28;20061;-48
2020/12/06 02:29:22;;;;;;;1.60;1.23;;;19.10;41.20;;;;;;5048482;28;20090;-49
2020/12/06 02:31:47;;;;;;;2.05;1.48;;;19.10;41.20;;;;;;5040755;28;20037;-50
2020/12/06 02:34:14;;;;;;;1.48;1.25;;;19.10;41.20;;;;;;5048881;28;20029;-50
2020/12/06 02:36:40;;;;;;;1.35;1.25;;;19.10;41.30;;;;;;5038345;28;20029;-49
2020/12/06 02:39:11;;;;;;;1.50;1.17;;;19.10;41.30;;;;;;5048948;28;20033;-47
2020/12/06 02:41:41;;;;;;;1.97;1.33;;;19.10;41.30;;;;;;5046720;28;20031;-49
2020/12/06 02:44:08;;;;;;;2.85;1.50;;;19.10;41.30;;;;;;5029863;28;20041;-51
2020/12/06 02:46:34;;;;;;;1.60;1.40;;;19.10;41.30;;;;;;5045616;28;20075;-48
2020/12/06 02:49:00;;;;;;;2.00;1.50;;;19.10;41.40;;;;;;5047244;28;20036;-50
2020/12/06 02:51:26;;;;;;;1.67;1.40;;;19.10;41.40;;;;;;5048250;28;20037;-48
2020/12/06 02:53:53;;;;;;;1.73;1.25;;;19.10;41.30;;;;;;5044579;28;20483;-45
2020/12/06 02:56:18;;;;;;;1.55;1.23;;;19.10;41.30;;;;;;5041332;28;20394;-50
2020/12/06 02:58:44;;;;;;;2.20;1.60;;;19.10;41.40;;;;;;5046687;28;20037;-49
2020/12/06 03:01:10;;;;;;;1.95;1.52;;;19.10;41.40;;;;;;5031064;28;20501;-48
2020/12/06 03:03:35;;;;;;;1.85;1.33;;;19.10;41.40;;;;;;5047400;28;20032;-48
2020/12/06 03:06:01;;;;;;;1.40;0.98;;;19.10;41.40;;;;;;5048480;28;20033;-48
2020/12/06 03:08:26;;;;;;;1.50;1.10;;;19.10;41.30;;;;;;5047893;28;20174;-52
2020/12/06 03:10:52;;;;;;;2.55;1.40;;;19.10;41.30;;;;;;5043533;28;20067;-45
2020/12/06 03:13:17;;;;;;;1.48;1.02;;;19.10;41.40;;;;;;5048141;28;20076;-49
2020/12/06 03:15:43;;;;;;;1.85;1.25;;;19.00;41.40;;;;;;5035279;28;20034;-49
2020/12/06 03:18:08;;;;;;;1.70;1.40;;;19.00;41.30;;;;;;5044681;28;20097;-48
2020/12/06 03:20:34;;;;;;;1.20;1.00;;;19.00;41.30;;;;;;5040446;28;20074;-48
2020/12/06 03:23:00;;;;;;;1.50;1.08;;;19.10;41.30;;;;;;5048360;28;20067;-51
2020/12/06 03:25:26;;;;;;;2.50;1.70;;;19.10;41.30;;;;;;5045235;28;20037;-48
2020/12/06 03:27:51;;;;;;;1.65;1.33;;;19.10;41.10;;;;;;5041243;28;20044;-46
2020/12/06 03:30:17;;;;;;;1.70;1.25;;;19.10;41.20;;;;;;5048842;28;20100;-49
2020/12/06 03:32:43;;;;;;;1.40;0.95;;;19.00;41.10;;;;;;5037025;28;20033;-48
2020/12/06 03:35:09;;;;;;;1.30;0.98;;;19.00;41.20;;;;;;5047606;28;20111;-48
2020/12/06 03:37:35;;;;;;;1.20;0.82;;;19.10;41.20;;;;;;5039621;28;20037;-47
2020/12/06 03:40:00;;;;;;;1.65;1.05;;;19.00;41.20;;;;;;5048291;28;20029;-49
2020/12/06 03:42:26;;;;;;;2.75;1.63;;;19.00;41.20;;;;;;5038536;28;20048;-49
2020/12/06 03:44:51;;;;;;;1.02;0.88;;;19.00;41.30;;;;;;5028603;28;20083;-48
2020/12/06 03:47:17;;;;;;;1.77;0.70;;;19.00;41.20;;;;;;5044494;28;20064;-49
2020/12/06 03:49:44;;;;;;;1.50;1.40;;;19.00;41.20;;;;;;5048155;28;20145;-51
2020/12/06 03:52:10;;;;;;;1.52;0.82;;;19.00;41.20;;;;;;5048660;28;20056;-48
2020/12/06 03:54:35;;;;;;;1.33;1.08;;;19.00;41.20;;;;;;5046648;28;20056;-50
2020/12/06 03:57:01;;;;;;;1.58;1.27;;;19.00;41.20;;;;;;5041360;28;20032;-49
2020/12/06 03:59:26;;;;;;;1.20;0.82;;;19.00;41.20;;;;;;5045301;28;20111;-45
2020/12/06 04:01:52;;;;;;;3.42;1.38;;;19.00;41.20;;;;;;5040060;28;20047;-48
2020/12/06 04:04:17;;;;;;;1.38;1.23;;;19.00;41.20;;;;;;5047838;28;20128;-50
2020/12/06 04:06:43;;;;;;;2.00;1.42;;;19.00;41.20;;;;;;5044743;28;20033;-50
2020/12/06 04:09:09;;;;;;;1.27;1.17;;;19.00;41.20;;;;;;5046021;28;20040;-48
2020/12/06 04:11:34;;;;;;;2.15;1.30;;;19.00;41.20;;;;;;5046070;28;20029;-48
2020/12/06 04:14:00;;;;;;;3.15;1.40;;;19.00;41.20;;;;;;5046900;28;20033;-48
2020/12/06 04:16:25;;;;;;;1.95;1.23;;;19.00;41.10;;;;;;5039561;28;20056;-51
2020/12/06 04:18:51;;;;;;;1.58;1.27;;;19.00;41.10;;;;;;5039564;28;20487;-48
2020/12/06 04:21:16;;;;;;;3.55;1.70;;;19.00;41.10;;;;;;5033474;28;20051;-47
2020/12/06 04:23:42;;;;;;;2.20;1.40;;;19.00;41.20;;;;;;5046634;28;20060;-51
2020/12/06 04:26:07;;;;;;;1.30;1.10;;;19.00;41.10;;;;;;5035073;28;20060;-50
2020/12/06 04:28:33;;;;;;;1.80;0.80;;;19.00;41.20;;;;;;5049299;28;20037;-49
2020/12/06 04:30:59;;;;;;;2.13;1.42;;;19.00;41.10;;;;;;5046246;28;20083;-50
2020/12/06 04:33:24;;;;;;;2.00;1.00;;;19.00;41.20;;;;;;5044113;28;20509;-50
2020/12/06 04:35:50;;;;;;;1.58;1.10;;;18.90;41.10;;;;;;5038900;28;20108;-54
2020/12/06 04:38:16;;;;;;;1.80;1.05;;;19.00;41.40;;;;;;5046410;28;20499;-49
2020/12/06 04:40:42;;;;;;;1.25;0.95;;;19.00;41.10;;;;;;5051111;28;20060;-50
2020/12/06 04:43:08;;;;;;;1.40;1.10;;;18.90;41.10;;;;;;5049049;28;20556;-49
2020/12/06 04:45:34;;;;;;;1.67;1.00;;;18.90;41.10;;;;;;5054088;28;20045;-50
2020/12/06 04:48:04;;;;;;;1.58;1.13;;;19.00;41.10;;;;;;5050764;28;20044;-50
2020/12/06 04:50:40;;;;;;;1.90;1.00;;;18.90;41.10;;;;;;5055395;28;20085;-50
2020/12/06 04:53:06;;;;;;;2.08;1.33;;;18.90;41.20;;;;;;5038971;28;20044;-50
2020/12/06 04:55:34;;;;;;;2.15;1.23;;;19.00;41.20;;;;;;5053629;28;20097;-51
2020/12/06 04:58:02;;;;;;;1.65;1.13;;;19.00;41.20;;;;;;5052784;28;20068;-50
2020/12/06 05:00:36;;;;;;;1.77;1.42;;;18.90;41.10;;;;;;5052725;28;20029;-51
2020/12/06 05:03:09;;;;;;;1.58;1.02;;;18.90;41.20;;;;;;5048142;28;20037;-48
2020/12/06 05:05:41;;;;;;;2.25;1.05;;;18.90;41.00;;;;;;5050673;28;20147;-48
2020/12/06 05:08:09;;;;;;;1.45;1.10;;;18.90;41.00;;;;;;5050675;28;20037;-48
2020/12/06 05:10:46;;;;;;;1.50;1.05;;;18.90;41.10;;;;;;5051470;28;20039;-51
2020/12/06 05:13:13;;;;;;;1.08;0.90;;;18.90;41.10;;;;;;5031773;28;20041;-49
2020/12/06 05:15:38;;;;;;;1.42;1.20;;;18.90;41.10;;;;;;5049655;28;20086;-50
2020/12/06 05:18:04;;;;;;;1.58;1.20;;;18.90;41.10;;;;;;5044846;28;20103;-49
2020/12/06 05:20:31;;;;;;;1.98;0.90;;;18.90;41.10;;;;;;5048585;28;20043;-49
2020/12/06 05:22:56;;;;;;;1.23;1.00;;;18.90;41.10;;;;;;5037929;28;20039;-49
2020/12/06 05:25:23;;;;;;;2.97;1.30;;;18.90;41.10;;;;;;5043418;28;20033;-45
2020/12/06 05:27:49;;;;;;;1.98;1.17;;;18.90;41.20;;;;;;5051027;28;20458;-51
2020/12/06 05:30:15;;;;;;;2.05;1.40;;;18.90;41.10;;;;;;5043708;28;20034;-49
2020/12/06 05:32:41;;;;;;;1.42;1.33;;;18.90;41.10;;;;;;5050046;28;20055;-49
2020/12/06 05:35:08;;;;;;;1.42;0.80;;;18.90;41.20;;;;;;5048652;28;20537;-47
2020/12/06 05:37:38;;;;;;;2.45;1.40;;;18.90;41.10;;;;;;5050190;28;20041;-50
2020/12/06 05:40:09;;;;;;;1.40;0.80;;;18.90;41.10;;;;;;5050351;28;20037;-48
2020/12/06 05:42:38;;;;;;;1.33;1.00;;;18.90;41.10;;;;;;5050463;28;20040;-49
2020/12/06 05:45:04;;;;;;;1.52;1.13;;;18.90;41.10;;;;;;5034635;28;20033;-50
2020/12/06 05:47:30;;;;;;;1.90;1.17;;;18.90;41.20;;;;;;5045637;28;20386;-48
2020/12/06 05:49:57;;;;;;;1.95;0.90;;;18.90;41.20;;;;;;5046300;28;20033;-49
2020/12/06 05:52:28;;;;;;;1.23;1.10;;;18.90;41.20;;;;;;5052024;28;20444;-49
2020/12/06 05:54:55;;;;;;;1.90;0.80;;;18.80;41.10;;;;;;5045232;28;20098;-50
2020/12/06 05:57:25;;;;;;;1.40;0.93;;;18.80;41.00;;;;;;5046845;28;20060;-47
2020/12/06 05:59:56;;;;;;;3.17;1.17;;;18.80;41.00;;;;;;5044204;28;20036;-48
2020/12/06 06:02:23;;;;;;;1.73;1.23;;;18.80;41.10;;;;;;5047268;28;20037;-48
2020/12/06 06:04:50;;;;;;;1.73;1.23;;;18.80;41.10;;;;;;5042309;28;20029;-50
2020/12/06 06:07:22;;;;;;;1.90;1.27;;;18.80;41.10;;;;;;5046061;28;20128;-48
2020/12/06 06:10:02;;;;;;;1.10;0.75;;;18.80;41.10;;;;;;5047682;28;20042;-47
2020/12/06 06:12:33;;;;;;;1.60;1.00;;;18.90;41.20;;;;;;5050529;28;20029;-47
2020/12/06 06:15:01;;;;;;;1.70;0.95;;;18.80;41.10;;;;;;5037593;28;20116;-51
2020/12/06 06:17:29;;;;;;;1.83;1.10;;;18.80;41.20;;;;;;5044343;28;20029;-50
2020/12/06 06:19:55;;;;;;;1.33;0.95;;;18.80;41.10;;;;;;5049471;28;20111;-48
2020/12/06 06:22:36;;;;;;;1.05;0.70;;;18.80;41.20;;;;;;5037876;28;20041;-50
2020/12/06 06:25:04;;;;;;;1.00;0.80;;;18.80;41.10;;;;;;5047461;28;20056;-51
2020/12/06 06:27:34;;;;;;;1.48;0.80;;;18.80;41.20;;;;;;5043855;28;20029;-49
2020/12/06 06:30:00;;;;;;;1.35;0.95;;;18.80;41.10;;;;;;5049889;28;20040;-50
2020/12/06 06:32:25;;;;;;;1.25;0.80;;;18.80;41.20;;;;;;5042130;28;20052;-51
2020/12/06 06:34:51;;;;;;;1.33;0.85;;;18.80;41.20;;;;;;5045197;28;20061;-49
2020/12/06 06:37:17;;;;;;;1.42;0.73;;;18.80;41.20;;;;;;5035134;28;20024;-49
2020/12/06 06:39:43;;;;;;;1.20;0.70;;;18.80;41.20;;;;;;5045859;28;20037;-49
2020/12/06 06:42:12;;;;;;;1.65;1.00;;;18.80;41.20;;;;;;5044928;28;20508;-50
2020/12/06 06:44:42;;;;;;;1.05;0.80;;;18.80;41.10;;;;;;5037179;28;20071;-49
2020/12/06 06:47:12;;;;;;;1.05;0.95;;;18.80;41.10;;;;;;5037914;28;20037;-48
2020/12/06 06:49:49;;;;;;;1.13;0.85;;;18.80;41.10;;;;;;5049258;28;20057;-49
2020/12/06 06:52:17;;;;;;;1.45;0.80;;;18.80;41.10;;;;;;5041010;28;20025;-48
2020/12/06 06:54:47;;;;;;;1.40;0.77;;;18.80;41.30;;;;;;5026237;28;20498;-50
2020/12/06 06:57:14;;;;;;;1.27;1.15;;;18.70;41.10;;;;;;5046912;28;20405;-49
2020/12/06 06:59:44;;;;;;;2.47;1.08;;;18.70;41.10;;;;;;5041398;28;20105;-52
2020/12/06 07:02:33;;;;;;;1.33;0.75;;;18.70;41.10;;;;;;5044061;28;20505;-49
2020/12/06 07:05:07;;;;;;;1.48;0.90;;;18.70;41.20;;;;;;5046475;28;20080;-48
2020/12/06 07:07:50;;;;;;;1.83;0.85;;;18.80;41.20;;;;;;5046753;28;20498;-48
2020/12/06 07:10:18;;;;;;;1.23;0.60;;;18.80;41.30;;;;;;5030658;28;20067;-47
2020/12/06 07:12:47;;;;;;;1.15;0.88;;;18.70;41.30;;;;;;5040937;28;20498;-48
2020/12/06 07:15:14;;;;;;;1.20;0.80;;;18.70;41.60;;;;;;5042060;28;20047;-46
2020/12/06 07:17:41;;;;;;;2.58;0.70;;;18.70;41.70;;;;;;5038769;28;20021;-48
2020/12/06 07:20:09;;;;;;;0.90;0.57;;;18.70;42.10;;;;;;5033289;28;20375;-48
2020/12/06 07:22:36;;;;;;;1.02;0.63;;;18.70;42.10;;;;;;5044899;28;20036;-50
2020/12/06 07:25:04;;;;;;;1.48;0.73;;;18.70;42.20;;;;;;5048100;28;20076;-48
2020/12/06 07:27:29;;;;;;;1.60;0.85;;;18.70;42.00;;;;;;5044480;28;20025;-49
2020/12/06 07:29:55;;;;;;;1.80;0.70;;;18.80;42.20;;;;;;5048638;28;20024;-47
2020/12/06 07:32:20;;;;;;;1.55;1.02;;;18.70;42.70;;;;;;5036210;28;20021;-47
2020/12/06 07:34:49;;;;;;;1.50;1.02;;;18.70;42.30;;;;;;5040985;28;20040;-49
2020/12/06 07:37:15;;;;;;;2.85;1.10;;;18.70;42.20;;;;;;5046281;28;20040;-49
2020/12/06 07:39:45;;;;;;;1.50;1.20;;;18.70;42.10;;;;;;5045996;28;20037;-47
2020/12/06 07:42:17;;;;;;;1.40;0.90;;;18.70;42.10;;;;;;5032634;28;20566;-47
2020/12/06 07:44:48;;;;;;;1.70;1.05;;;18.70;42.10;;;;;;5046421;28;20037;-51
2020/12/06 07:47:13;;;;;;;1.67;1.17;;;18.70;42.00;;;;;;5041291;28;20045;-50
2020/12/06 07:49:46;;;;;;;2.47;1.27;;;18.70;41.80;;;;;;5035655;28;20550;-51
2020/12/06 07:52:20;;;;;;;3.25;1.48;;;18.70;41.70;;;;;;5040573;28;20048;-49
2020/12/06 07:54:56;;;;;;;1.42;1.10;;;18.70;41.60;;;;;;5033434;28;20104;-49
2020/12/06 07:57:39;;;;;;;4.32;1.38;;;18.70;41.60;;;;;;5044871;28;20144;-48
2020/12/06 08:00:27;;;;;;;2.13;1.20;;;18.70;41.60;;;;;;5044682;28;20029;-52
2020/12/06 08:02:58;;;;;;;1.50;1.27;;;18.70;41.50;;;;;;5047541;28;20132;-50
2020/12/06 08:05:29;;;;;;;1.77;1.20;;;18.70;41.50;;;;;;5043536;28;20042;-50
2020/12/06 08:07:58;;;;;;;2.00;0.95;;;18.70;41.50;;;;;;5047039;28;20044;-52
2020/12/06 08:10:25;;;;;;;2.15;1.40;;;18.70;41.40;;;;;;5046178;28;20068;-52
2020/12/06 08:12:54;;;;;;;1.08;0.90;;;18.70;41.50;;;;;;5047793;28;20025;-49
2020/12/06 08:15:24;;;;;;;1.80;1.15;;;18.70;41.40;;;;;;5050944;28;20398;-51
2020/12/06 08:17:51;;;;;;;2.08;1.30;;;18.70;41.40;;;;;;5042583;28;20033;-50
2020/12/06 08:20:19;;;;;;;1.55;1.23;;;18.70;41.30;;;;;;5050621;28;20134;-50
2020/12/06 08:22:56;;;;;;;3.50;1.20;;;18.70;41.30;;;;;;5052042;28;20025;-50
2020/12/06 08:25:46;;;;;;;3.40;1.35;;;18.70;41.40;;;;;;5036976;28;20027;-49
2020/12/06 08:28:18;;;;;;;1.20;1.00;;;18.70;41.40;;;;;;5040425;28;20040;-51
2020/12/06 08:30:43;;;;;;;;;;;18.70;41.30;;;;;;5053151;28;20116;-50
2020/12/06 08:33:09;;;;;;;1.92;1.08;;;18.70;41.30;;;;;;5051167;28;20038;-51
2020/12/06 08:35:48;;;;;;;1.00;0.90;;;18.70;41.30;;;;;;5047957;28;20029;-47
2020/12/06 08:38:24;;;;;;;1.95;1.60;;;18.70;41.30;;;;;;5047826;28;20111;-50
2020/12/06 08:41:10;;;;;;;2.17;1.30;;;18.70;41.30;;;;;;5044526;28;20033;-48
2020/12/06 08:44:00;;;;;;;1.63;1.17;;;18.70;41.30;;;;;;5052576;28;20032;-48
2020/12/06 08:46:25;;;;;;;2.30;1.40;;;18.70;41.30;;;;;;5048172;28;20033;-51
2020/12/06 08:48:53;;;;;;;1.42;0.85;;;18.70;41.20;;;;;;5050235;28;20063;-51
2020/12/06 08:51:36;;;;;;;2.30;0.90;;;18.70;41.20;;;;;;5048644;28;20421;-48
2020/12/06 08:54:06;;;;;;;2.20;1.40;;;18.70;41.20;;;;;;5051286;28;20032;-46
2020/12/06 08:56:39;;;;;;;1.63;1.20;;;18.70;41.20;;;;;;5038183;28;20056;-49
2020/12/06 08:59:10;;;;;;;2.15;1.52;;;18.70;41.10;;;;;;5050168;28;20513;-48
2020/12/06 09:01:55;;;;;;;1.98;1.30;;;18.70;41.30;;;;;;5049478;28;20120;-50
2020/12/06 09:04:22;;;;;;;1.92;1.15;;;18.70;41.10;;;;;;5046074;28;20035;-49
2020/12/06 09:06:50;;;;;;;2.83;1.80;;;18.70;41.10;;;;;;5030585;28;20040;-49
2020/12/06 09:09:16;;;;;;;2.35;1.67;;;18.70;41.10;;;;;;5049762;28;20025;-49
2020/12/06 09:11:42;;;;;;;2.58;1.40;;;18.70;41.10;;;;;;5048867;28;20044;-48
2020/12/06 09:14:07;;;;;;;2.50;1.67;;;18.70;41.10;;;;;;5048845;28;20120;-46
2020/12/06 09:16:33;;;;;;;4.43;1.88;;;18.70;41.20;;;;;;5050445;28;20036;-48
2020/12/06 09:18:59;;;;;;;2.08;1.58;;;18.70;41.10;;;;;;5050300;28;20730;-51
2020/12/06 09:21:25;;;;;;;2.05;1.80;;;18.70;41.10;;;;;;5050600;28;20029;-48
2020/12/06 09:23:50;;;;;;;2.33;1.50;;;18.70;41.20;;;;;;5051221;28;20072;-51
2020/12/06 09:26:16;;;;;;;2.35;1.60;;;18.70;41.10;;;;;;5049528;28;20028;-50
2020/12/06 09:28:42;;;;;;;1.75;1.65;;;18.70;41.10;;;;;;5049670;28;20037;-49
2020/12/06 09:31:07;;;;;;;2.05;1.30;;;18.70;41.20;;;;;;5045904;28;20033;-46
2020/12/06 09:33:33;;;;;;;2.75;1.80;;;18.60;41.20;;;;;;5050026;28;20037;-46
2020/12/06 09:36:00;;;;;;;2.08;1.88;;;18.70;41.20;;;;;;5048352;28;20037;-50
2020/12/06 09:38:26;;;;;;;2.33;1.60;;;18.70;41.20;;;;;;5041361;28;20028;-51
2020/12/06 09:40:52;;;;;;;2.58;2.10;;;18.70;41.30;;;;;;5049405;28;20068;-49
2020/12/06 09:43:17;;;;;;;2.33;2.05;;;18.70;41.20;;;;;;5036536;28;20513;-51
2020/12/06 09:45:43;;;;;;;2.35;2.15;;;18.70;41.20;;;;;;5042452;28;20098;-51
2020/12/06 09:48:10;;;;;;;3.53;2.00;;;18.70;41.30;;;;;;5050796;28;20424;-48
2020/12/06 09:50:35;;;;;;;3.45;2.08;;;18.70;41.20;;;;;;5045589;28;20393;-47
2020/12/06 09:53:01;;;;;;;2.65;2.45;;;18.70;41.20;;;;;;5042351;28;20049;-50
2020/12/06 09:55:27;;;;;;;2.63;2.40;;;18.70;41.20;;;;;;5032849;28;20117;-47
2020/12/06 09:57:53;;;;;;;2.35;2.13;;;18.70;41.30;;;;;;5040685;28;20032;-47
2020/12/06 10:00:18;;;;;;;3.20;2.72;;;18.70;41.10;;;;;;5048169;28;20059;-52
2020/12/06 10:02:44;;;;;;;2.75;2.30;;;18.60;41.00;;;;;;5046624;28;20452;-49
2020/12/06 10:05:11;;;;;;;3.08;2.78;;;18.70;41.30;;;;;;5038107;28;20123;-49
2020/12/06 10:07:37;;;;;;;2.65;2.45;;;18.70;41.30;;;;;;5048476;28;20041;-48
2020/12/06 10:10:04;;;;;;;4.28;3.00;;;18.60;41.10;;;;;;5048773;28;20110;-50
2020/12/06 10:12:29;;;;;;;3.30;2.55;;;18.60;41.30;;;;;;5029927;28;20071;-49
2020/12/06 10:14:55;;;;;;;3.30;3.00;;;18.60;41.30;;;;;;5050001;28;20032;-49
2020/12/06 10:17:21;;;;;;;3.95;3.60;;;18.60;41.20;;;;;;5048287;28;20045;-48
2020/12/06 10:19:46;;;;;;;3.75;3.40;;;18.70;41.20;;;;;;5046450;28;20041;-50
2020/12/06 10:22:12;;;;;;;3.97;3.65;;;18.70;41.30;;;;;;5047919;28;20098;-50
2020/12/06 10:24:37;;;;;;;3.45;3.15;;;18.70;41.20;;;;;;5046732;28;20033;-50
2020/12/06 10:27:03;;;;;;;3.72;3.40;;;18.60;41.30;;;;;;5044361;28;20041;-46
2020/12/06 10:29:28;;;;;;;4.18;3.78;;;18.60;41.20;;;;;;5048815;28;20084;-49
2020/12/06 10:31:55;;;;;;;4.68;3.10;;;18.60;41.20;;;;;;5049074;28;20041;-48
2020/12/06 10:34:21;;;;;;;4.35;3.90;;;18.60;41.20;;;;;;5042036;28;20020;-50
2020/12/06 10:36:55;;;;;;;4.45;3.60;;;18.60;41.30;;;;;;5047206;28;20060;-48
2020/12/06 10:39:21;;;;;;;4.05;3.75;;;18.60;41.20;;;;;;5048535;28;20115;-50
2020/12/06 10:42:05;;;;;;;3.63;3.35;;;18.60;41.20;;;;;;5049676;28;20025;-50
2020/12/06 10:44:30;;;;;;;3.55;3.25;;;18.60;41.10;;;;;;5046979;28;20033;-47
2020/12/06 10:46:56;;;;;;;4.13;3.75;;;18.60;41.30;;;;;;5045715;28;20041;-49
2020/12/06 10:49:22;;;;;;;4.32;3.55;;;18.60;41.20;;;;;;5040066;28;20060;-49
2020/12/06 10:51:48;;;;;;;4.10;3.80;;;18.60;41.30;;;;;;5047384;28;20037;-49
2020/12/06 10:54:14;;;;;;;4.13;3.75;;;18.60;41.10;;;;;;5048535;28;20516;-46
2020/12/06 10:56:40;;;;;;;4.65;4.10;;;18.60;41.20;;;;;;5049051;28;20039;-50
2020/12/06 10:59:07;;;;;;;5.20;3.60;;;18.60;41.30;;;;;;5037248;28;20045;-50
2020/12/06 11:01:34;;;;;;;4.00;3.70;;;18.60;41.30;;;;;;5045117;28;20571;-45
2020/12/06 11:04:02;;;;;;;3.35;3.05;;;18.60;41.20;;;;;;5047879;28;20043;-50
2020/12/06 11:06:28;;;;;;;4.25;2.97;;;18.60;41.50;;;;;;5040924;28;20020;-49
2020/12/06 11:08:54;;;;;;;4.50;3.35;;;18.60;41.50;;;;;;5040344;28;20045;-48
2020/12/06 11:11:21;;;;;;;3.88;2.97;;;18.60;41.50;;;;;;5026667;28;20040;-49
2020/12/06 11:13:47;;;;;;;3.58;3.15;;;18.60;41.40;;;;;;5048166;28;20052;-49
2020/12/06 11:16:21;;;;;;;2.92;2.70;;;18.60;41.50;;;;;;5034326;28;20137;-49
2020/12/06 11:18:47;;;;;;;3.70;3.30;;;18.60;41.50;;;;;;5047938;28;20029;-50
2020/12/06 11:21:20;;;;;;;4.47;3.13;;;18.60;41.60;;;;;;5046522;28;20025;-48
2020/12/06 11:23:47;;;;;;;4.00;3.55;;;18.60;41.60;;;;;;5041341;28;20033;-48
2020/12/06 11:26:14;;;;;;;4.60;4.20;;;18.60;41.40;;;;;;5048827;28;20103;-50
2020/12/06 11:28:40;;;;;;;3.38;2.92;;;18.60;41.50;;;;;;5044687;28;20044;-48
2020/12/06 11:31:06;;;;;;;3.92;3.53;;;18.60;41.50;;;;;;5047282;28;20584;-51
2020/12/06 11:33:32;;;;;;;3.10;2.80;;;18.60;41.60;;;;;;5048260;28;20064;-50
2020/12/06 11:35:58;;;;;;;3.58;2.85;;;18.60;41.50;;;;;;5037886;28;20337;-49
2020/12/06 11:38:23;;;;;;;4.03;3.13;;;18.60;41.50;;;;;;5045483;28;20059;-49
2020/12/06 11:40:49;;;;;;;3.22;2.92;;;18.60;41.50;;;;;;5044801;28;20037;-51
2020/12/06 11:43:14;;;;;;;3.88;3.15;;;18.60;41.50;;;;;;5036373;28;20048;-50
2020/12/06 11:45:40;;;;;;;5.00;3.25;;;18.60;41.50;;;;;;5045378;28;20045;-45
2020/12/06 11:48:06;;;;;;;5.03;2.83;;;18.60;41.50;;;;;;5046939;28;20485;-47
2020/12/06 11:50:32;;;;;;;3.45;3.15;;;18.60;41.50;;;;;;5046936;28;20029;-50
2020/12/06 11:52:59;;;;;;;2.78;2.58;;;18.60;41.50;;;;;;5039949;28;20033;-50
2020/12/06 11:55:25;;;;;;;3.50;3.20;;;18.60;41.50;;;;;;5043290;28;20029;-50
2020/12/06 11:57:50;;;;;;;3.33;2.80;;;18.60;41.70;;;;;;5031707;28;20037;-49
2020/12/06 12:00:16;;;;;;;2.67;2.47;;;18.60;41.50;;;;;;5045737;28;20040;-51
2020/12/06 12:02:41;;;;;;;3.15;2.85;;;18.60;41.50;;;;;;5045284;28;20037;-48
2020/12/06 12:05:07;;;;;;;2.92;2.65;;;18.60;41.40;;;;;;5045707;28;20659;-47
2020/12/06 12:07:32;;;;;;;3.88;2.40;;;18.60;41.40;;;;;;5043340;28;20566;-49
2020/12/06 12:09:58;;;;;;;3.83;2.97;;;18.60;41.40;;;;;;5046962;28;20033;-47
2020/12/06 12:12:24;;;;;;;2.88;2.33;;;18.60;41.50;;;;;;5045358;28;20405;-50
2020/12/06 12:14:50;;;;;;;3.72;2.67;;;18.60;41.60;;;;;;5038668;28;20052;-50
2020/12/06 12:17:16;;;;;;;3.22;2.60;;;18.60;41.50;;;;;;5043316;28;20064;-49
2020/12/06 12:19:41;;;;;;;3.20;2.50;;;18.60;41.40;;;;;;5032497;28;20517;-49
2020/12/06 12:22:07;;;;;;;4.38;2.60;;;18.60;41.40;;;;;;5028646;28;20034;-48
2020/12/06 12:24:32;;;;;;;2.78;2.45;;;18.60;41.60;;;;;;5043173;28;20051;-47
2020/12/06 12:26:59;;;;;;;3.95;3.33;;;18.50;41.40;;;;;;5041460;28;20037;-48
2020/12/06 12:29:25;;;;;;;4.20;3.08;;;18.60;41.40;;;;;;5045915;28;20483;-49
2020/12/06 12:31:50;;;;;;;3.08;2.38;;;18.50;41.60;;;;;;5041270;28;20030;-49
2020/12/06 12:34:16;;;;;;;3.70;2.67;;;18.50;42.00;;;;;;5045220;28;20532;-49
2020/12/06 12:36:44;;;;;;;3.67;2.40;;;18.60;42.10;;;;;;5039911;28;20453;-47
2020/12/06 12:39:10;;;;;;;3.95;3.03;;;18.70;41.80;;;;;;5047104;28;20037;-49
2020/12/06 12:41:35;;;;;;;4.15;2.80;;;18.80;41.60;;;;;;5044427;28;20094;-49
2020/12/06 12:44:03;;;;;;;4.25;3.30;;;18.90;41.40;;;;;;5038574;28;20456;-51
2020/12/06 12:46:29;;;;;;;4.40;3.10;;;19.00;41.20;;;;;;5042780;28;20025;-49
2020/12/06 12:48:55;;;;;;;4.07;3.10;;;19.20;41.00;;;;;;5042614;28;20533;-51